createdAt,value
2019-04-04T00:00:58.296Z,18.65
2019-04-04T00:03:26.875Z,19.95
2019-04-04T00:06:00.055Z,20.88
2019-04-04T00:08:30.898Z,20.30
2019-04-04T00:10:59.462Z,18.85
2019-04-04T00:13:28.384Z,19.50
2019-04-04T00:15:56.936Z,19.60
2019-04-04T00:18:27.456Z,19.25
2019-04-04T00:21:02.521Z,19.07
2019-04-04T00:23:33.628Z,19.82
2019-04-04T00:26:02.361Z,20.55
2019-04-04T00:28:31.476Z,20.65
2019-04-04T00:31:01.411Z,19.52
2019-04-04T00:33:32.027Z,19.82
2019-04-04T00:36:04.949Z,20.45
2019-04-04T00:38:38.647Z,18.50
2019-04-04T00:41:09.237Z,18.90
2019-04-04T00:43:39.482Z,17.82
2019-04-04T00:46:30.855Z,16.70
2019-04-04T00:49:04.926Z,16.40
2019-04-04T00:51:40.869Z,17.23
2019-04-04T00:54:09.468Z,19.30
2019-04-04T00:56:38.031Z,17.55
2019-04-04T00:59:07.027Z,18.10
2019-04-04T01:01:36.335Z,17.42
2019-04-04T01:04:06.736Z,17.00
2019-04-04T01:06:36.757Z,16.35
2019-04-04T01:09:11.741Z,15.18
2019-04-04T01:11:37.823Z,14.35
2019-04-04T01:14:06.913Z,15.03
2019-04-04T01:16:37.670Z,16.15
2019-04-04T01:19:09.966Z,16.02
2019-04-04T01:21:42.833Z,15.50
2019-04-04T01:24:14.893Z,15.40
2019-04-04T01:26:43.449Z,14.58
2019-04-04T01:29:14.022Z,15.80
2019-04-04T01:31:46.015Z,14.63
2019-04-04T01:34:14.757Z,16.10
2019-04-04T01:36:47.384Z,14.55
2019-04-04T01:39:19.314Z,15.38
2019-04-04T01:41:53.181Z,15.50
2019-04-04T01:44:22.115Z,15.13
2019-04-04T01:46:52.331Z,14.40
2019-04-04T01:49:23.621Z,15.15
2019-04-04T01:51:52.539Z,15.03
2019-04-04T01:54:21.089Z,13.88
2019-04-04T01:56:51.558Z,13.98
2019-04-04T01:59:20.359Z,15.10
2019-04-04T02:01:52.304Z,15.28
2019-04-04T02:04:22.947Z,14.35
2019-04-04T02:06:53.137Z,14.70
2019-04-04T02:09:23.918Z,15.00
2019-04-04T02:11:53.163Z,16.23
2019-04-04T02:14:23.123Z,15.08
2019-04-04T02:16:52.173Z,14.90
2019-04-04T02:19:24.584Z,13.98
2019-04-04T02:21:59.809Z,15.23
2019-04-04T02:24:29.839Z,16.90
2019-04-04T02:27:00.272Z,16.23
2019-04-04T02:29:29.214Z,14.00
2019-04-04T02:32:02.328Z,15.45
2019-04-04T02:34:31.462Z,17.52
2019-04-04T02:37:02.400Z,17.80
2019-04-04T02:39:35.079Z,18.02
2019-04-04T02:42:03.182Z,18.90
2019-04-04T02:44:33.015Z,17.70
2019-04-04T02:47:02.035Z,19.32
2019-04-04T02:49:37.003Z,17.02
2019-04-04T02:52:07.869Z,17.17
2019-04-04T02:54:39.993Z,16.80
2019-04-04T02:57:09.645Z,17.77
2019-04-04T02:59:40.790Z,16.37
2019-04-04T03:02:09.744Z,16.67
2019-04-04T03:04:45.888Z,13.55
2019-04-04T03:07:13.591Z,16.65
2019-04-04T03:09:43.792Z,16.70
2019-04-04T03:12:16.493Z,17.80
2019-04-04T03:14:50.262Z,17.85
2019-04-04T03:17:17.627Z,19.15
2019-04-04T03:19:47.836Z,19.32
2019-04-04T03:22:18.808Z,17.25
2019-04-04T03:24:47.373Z,19.80
2019-04-04T03:27:19.469Z,21.12
2019-04-04T03:29:49.886Z,20.75
2019-04-04T03:32:18.993Z,19.57
2019-04-04T03:34:50.027Z,20.88
2019-04-04T03:37:23.225Z,19.87
2019-04-04T03:39:53.289Z,20.37
2019-04-04T03:42:25.188Z,18.62
2019-04-04T03:44:55.722Z,17.48
2019-04-04T03:47:24.771Z,17.90
2019-04-04T03:49:57.707Z,18.02
2019-04-04T03:52:24.943Z,17.57
2019-04-04T03:54:56.864Z,17.60
2019-04-04T03:57:27.122Z,18.17
2019-04-04T03:59:59.093Z,17.27
2019-04-04T04:02:29.840Z,18.48
2019-04-04T04:05:02.001Z,16.97
2019-04-04T04:07:35.857Z,18.07
2019-04-04T04:12:36.712Z,17.52
2019-04-04T04:15:05.722Z,19.42
2019-04-04T04:17:38.237Z,19.05
2019-04-04T04:20:26.144Z,18.45
2019-04-04T04:22:54.715Z,18.80
2019-04-04T04:25:23.637Z,19.07
2019-04-04T04:27:52.571Z,17.77
2019-04-04T04:30:22.036Z,18.92
2019-04-04T04:32:55.721Z,17.80
2019-04-04T04:35:21.695Z,18.65
2019-04-04T04:37:53.344Z,19.82
2019-04-04T04:40:21.699Z,19.75
2019-04-04T04:42:59.710Z,17.67
2019-04-04T04:45:26.863Z,19.02
2019-04-04T04:48:00.028Z,18.57
2019-04-04T04:50:33.659Z,18.27
2019-04-04T04:55:32.207Z,17.35
2019-04-04T04:58:02.720Z,17.67
2019-04-04T05:00:31.578Z,19.80
2019-04-04T05:03:01.864Z,17.62
2019-04-04T05:05:32.304Z,19.12
2019-04-04T05:08:01.248Z,19.67
2019-04-04T05:10:31.301Z,21.52
2019-04-04T05:12:59.862Z,22.07
2019-04-04T05:15:34.029Z,21.25
2019-04-04T05:18:06.630Z,23.50
2019-04-04T05:20:38.199Z,22.93
2019-04-04T05:23:06.773Z,22.13
2019-04-04T05:25:35.345Z,22.50
2019-04-04T05:28:06.191Z,21.48
2019-04-04T05:30:39.825Z,20.95
2019-04-04T05:33:10.078Z,21.50
2019-04-04T05:35:39.412Z,20.88
2019-04-04T05:38:12.099Z,22.77
2019-04-04T05:40:39.024Z,22.85
2019-04-04T05:43:07.639Z,21.60
2019-04-04T05:45:38.741Z,20.80
2019-04-04T05:48:08.679Z,18.92
2019-04-04T05:50:37.449Z,18.45
2019-04-04T05:53:06.394Z,18.42
2019-04-04T05:55:41.857Z,16.40
2019-04-04T05:58:11.339Z,17.62
2019-04-04T06:00:44.102Z,17.45
2019-04-04T06:03:15.284Z,16.63
2019-04-04T06:05:45.062Z,17.23
2019-04-04T06:08:17.010Z,17.90
2019-04-04T06:10:50.016Z,21.33
2019-04-04T06:13:18.277Z,19.63
2019-04-04T06:16:09.283Z,18.62
2019-04-04T06:18:40.999Z,18.32
2019-04-04T06:21:12.515Z,17.02
2019-04-04T06:23:42.781Z,17.77
2019-04-04T06:26:13.022Z,18.10
2019-04-04T06:28:46.304Z,18.92
2019-04-04T06:31:18.595Z,17.65
2019-04-04T06:33:47.549Z,18.62
2019-04-04T06:36:20.867Z,18.42
2019-04-04T06:38:54.574Z,20.23
2019-04-04T06:41:24.100Z,20.02
2019-04-04T06:43:53.296Z,19.12
2019-04-04T06:46:22.852Z,18.98
2019-04-04T06:48:59.099Z,20.02
2019-04-04T06:51:29.379Z,20.37
2019-04-04T06:53:59.729Z,20.08
2019-04-04T06:56:32.536Z,19.55
2019-04-04T06:59:01.219Z,21.43
2019-04-04T07:01:31.670Z,21.23
2019-04-04T07:04:02.779Z,23.18
2019-04-04T07:06:31.871Z,21.23
2019-04-04T07:09:04.083Z,24.72
2019-04-04T07:11:33.001Z,24.87
2019-04-04T07:14:05.392Z,24.80
2019-04-04T07:16:36.821Z,24.75
2019-04-04T07:19:08.139Z,24.40
2019-04-04T07:21:38.745Z,22.45
2019-04-04T07:24:08.252Z,24.23
2019-04-04T07:26:40.821Z,24.02
2019-04-04T07:29:11.058Z,22.98
2019-04-04T07:31:43.320Z,24.52
2019-04-04T07:34:14.232Z,23.50
2019-04-04T07:36:44.396Z,22.60
2019-04-04T07:39:14.292Z,22.32
2019-04-04T07:41:44.991Z,22.65
2019-04-04T07:44:17.327Z,22.55
2019-04-04T07:46:46.283Z,22.75
2019-04-04T07:49:16.852Z,24.45
2019-04-04T07:51:45.445Z,22.85
2019-04-04T07:54:14.663Z,22.82
2019-04-04T07:56:48.742Z,21.17
2019-04-04T07:59:16.868Z,22.87
2019-04-04T08:01:51.361Z,24.90
2019-04-04T08:04:18.689Z,22.20
2019-04-04T08:06:49.197Z,19.67
2019-04-04T08:09:19.159Z,22.07
2019-04-04T08:11:48.706Z,20.62
2019-04-04T08:14:18.925Z,22.02
2019-04-04T08:16:47.856Z,22.75
2019-04-04T08:19:18.532Z,22.85
2019-04-04T08:21:47.359Z,23.40
2019-04-04T08:24:17.683Z,23.55
2019-04-04T08:26:48.708Z,23.22
2019-04-04T08:29:23.327Z,21.17
2019-04-04T08:31:51.900Z,22.42
2019-04-04T08:34:22.260Z,21.50
2019-04-04T08:36:51.126Z,20.08
2019-04-04T08:39:21.279Z,20.77
2019-04-04T08:41:52.479Z,22.65
2019-04-04T08:44:24.269Z,21.93
2019-04-04T08:46:55.606Z,22.20
2019-04-04T08:49:29.128Z,23.42
2019-04-04T08:54:31.101Z,22.07
2019-04-04T08:57:00.311Z,20.77
2019-04-04T08:59:28.957Z,20.88
2019-04-04T09:01:57.874Z,20.57
2019-04-04T09:04:26.809Z,19.90
2019-04-04T09:07:03.035Z,22.93
2019-04-04T09:09:34.787Z,20.60
2019-04-04T09:12:05.296Z,18.23
2019-04-04T09:14:35.784Z,16.77
2019-04-04T09:17:04.739Z,19.20
2019-04-04T09:19:33.331Z,16.27
2019-04-04T09:22:01.892Z,17.50
2019-04-04T09:24:37.420Z,16.97
2019-04-04T09:27:05.956Z,18.57
2019-04-04T09:29:36.308Z,18.35
2019-04-04T09:32:08.346Z,19.73
2019-04-04T09:34:37.103Z,17.55
2019-04-04T09:37:08.721Z,18.10
2019-04-04T09:39:37.907Z,17.07
2019-04-04T09:42:07.686Z,16.32
2019-04-04T09:44:40.532Z,17.10
2019-04-04T09:47:10.458Z,16.15
2019-04-04T09:49:39.073Z,22.40
2019-04-04T09:52:07.988Z,16.80
2019-04-04T09:54:36.876Z,16.65
2019-04-04T09:57:05.620Z,17.12
2019-04-04T09:59:34.569Z,19.57
2019-04-04T10:02:03.493Z,17.67
2019-04-04T10:04:32.433Z,17.35
2019-04-04T10:07:01.159Z,17.90
2019-04-04T10:09:30.075Z,19.00
2019-04-04T10:12:03.346Z,15.63
2019-04-04T10:14:32.101Z,17.25
2019-04-04T10:17:01.002Z,17.30
2019-04-04T10:19:29.901Z,16.48
2019-04-04T10:21:59.354Z,17.37
2019-04-04T10:24:32.960Z,16.07
2019-04-04T10:29:31.073Z,19.17
2019-04-04T10:31:59.806Z,19.87
2019-04-04T10:34:29.085Z,19.07
2019-04-04T10:36:59.017Z,17.00
2019-04-04T10:39:30.125Z,18.00
2019-04-04T10:41:58.908Z,18.73
2019-04-04T10:44:29.308Z,18.95
2019-04-04T10:46:58.256Z,18.62
2019-04-04T10:49:28.265Z,20.45
2019-04-04T10:51:58.427Z,20.60
2019-04-04T10:54:29.673Z,18.65
2019-04-04T10:56:59.816Z,17.50
2019-04-04T10:59:33.961Z,17.15
2019-04-04T11:02:03.050Z,17.85
2019-04-04T11:04:31.920Z,15.48
2019-04-04T11:07:02.052Z,15.48
2019-04-04T11:09:41.974Z,15.18
2019-04-04T11:12:06.760Z,14.60
2019-04-04T11:14:35.706Z,18.45
2019-04-04T11:17:05.000Z,17.75
2019-04-04T11:19:36.970Z,21.68
2019-04-04T11:22:05.893Z,18.20
2019-04-04T11:24:34.853Z,16.55
2019-04-04T11:27:03.773Z,16.05
2019-04-04T11:29:33.127Z,16.32
2019-04-04T11:32:01.700Z,16.57
2019-04-04T11:34:35.038Z,16.52
2019-04-04T11:37:05.170Z,16.00
2019-04-04T11:39:37.225Z,16.57
2019-04-04T11:42:05.837Z,17.73
2019-04-04T11:44:35.682Z,17.92
2019-04-04T11:47:04.255Z,18.25
2019-04-04T11:49:36.575Z,16.85
2019-04-04T11:52:05.576Z,18.50
2019-04-04T11:54:58.801Z,17.23
2019-04-04T11:57:27.569Z,18.35
2019-04-04T11:59:58.381Z,18.40
2019-04-04T12:02:32.943Z,19.57
2019-04-04T12:05:04.705Z,20.88
2019-04-04T12:07:38.056Z,20.55
2019-04-04T12:10:08.249Z,20.88
2019-04-04T12:12:58.541Z,20.43
2019-04-04T12:15:28.398Z,21.17
2019-04-04T12:18:01.309Z,20.52
2019-04-04T12:20:34.406Z,21.20
2019-04-04T12:23:03.324Z,21.65
2019-04-04T12:25:32.211Z,23.55
2019-04-04T12:28:03.730Z,23.80
2019-04-04T12:30:32.682Z,21.85
2019-04-04T12:33:02.811Z,24.65
2019-04-04T12:35:33.557Z,22.45
2019-04-04T12:38:04.367Z,24.95
2019-04-04T12:40:32.939Z,24.18
2019-04-04T12:43:03.597Z,25.35
2019-04-04T12:45:32.142Z,23.62
2019-04-04T12:48:02.723Z,24.18
2019-04-04T12:50:33.379Z,24.60
2019-04-04T12:53:02.488Z,23.75
2019-04-04T12:55:32.594Z,24.55
2019-04-04T12:58:02.834Z,24.35
2019-04-04T13:00:31.442Z,23.32
2019-04-04T13:03:00.212Z,22.70
2019-04-04T13:05:33.833Z,22.77
2019-04-04T13:10:37.639Z,22.55
2019-04-04T13:13:06.649Z,22.07
2019-04-04T13:15:35.455Z,22.02
2019-04-04T13:18:04.595Z,21.60
2019-04-04T13:20:34.767Z,23.02
2019-04-04T13:23:07.040Z,23.20
2019-04-04T13:25:38.999Z,22.55
2019-04-04T13:28:10.851Z,22.17
2019-04-04T13:30:46.580Z,22.85
2019-04-04T13:33:17.464Z,23.07
2019-04-04T13:35:47.886Z,24.07
2019-04-04T13:38:16.469Z,24.25
2019-04-04T13:41:04.291Z,23.98
2019-04-04T13:43:35.840Z,23.32
2019-04-04T13:46:05.767Z,24.55
2019-04-04T13:48:34.954Z,24.47
2019-04-04T13:51:03.558Z,24.87
2019-04-04T13:53:35.695Z,26.97
2019-04-04T13:56:05.621Z,26.50
2019-04-04T13:58:38.310Z,26.73
2019-04-04T14:01:09.113Z,27.73
2019-04-04T14:03:37.844Z,29.52
2019-04-04T14:06:07.339Z,27.95
2019-04-04T14:08:39.996Z,28.50
2019-04-04T14:11:11.378Z,28.23
2019-04-04T14:13:41.632Z,27.32
2019-04-04T14:16:10.490Z,29.75
2019-04-04T14:18:44.423Z,30.88
2019-04-04T14:21:16.565Z,31.10
2019-04-04T14:23:46.746Z,30.05
2019-04-04T14:26:15.318Z,32.35
2019-04-04T14:28:45.469Z,32.00
2019-04-04T14:31:19.119Z,31.75
2019-04-04T14:36:18.399Z,33.20
2019-04-04T14:38:46.969Z,31.15
2019-04-04T14:41:17.283Z,30.75
2019-04-04T14:43:49.806Z,31.10
2019-04-04T14:46:21.837Z,31.25
2019-04-04T14:48:52.135Z,30.75
2019-04-04T14:51:20.745Z,30.37
2019-04-04T14:53:49.334Z,30.25
2019-04-04T14:56:18.227Z,31.97
2019-04-04T14:58:48.486Z,30.40
2019-04-04T15:01:17.761Z,30.17
2019-04-04T15:03:49.769Z,28.70
2019-04-04T15:06:20.486Z,29.70
2019-04-04T15:08:50.887Z,28.75
2019-04-04T15:11:24.341Z,29.77
2019-04-04T15:13:55.260Z,30.52
2019-04-04T15:16:24.115Z,30.10
2019-04-04T15:18:55.819Z,30.43
2019-04-04T15:21:26.427Z,28.87
2019-04-04T15:23:55.335Z,30.45
2019-04-04T15:26:26.330Z,31.10
2019-04-04T15:28:56.767Z,32.17
2019-04-04T15:31:31.928Z,31.82
2019-04-04T15:34:01.092Z,32.50
2019-04-04T15:36:31.955Z,33.73
2019-04-04T15:39:02.721Z,32.83
2019-04-04T15:41:37.263Z,33.13
2019-04-04T15:44:06.402Z,34.18
2019-04-04T15:46:37.654Z,33.30
2019-04-04T15:49:10.821Z,33.70
2019-04-04T15:51:41.373Z,36.13
2019-04-04T15:54:09.954Z,35.45
2019-04-04T15:56:39.157Z,37.10
2019-04-04T15:59:10.100Z,58.52
2019-04-04T16:01:39.595Z,35.20
2019-04-04T16:04:11.350Z,35.15
2019-04-04T16:06:41.704Z,36.13
2019-04-04T16:09:11.288Z,37.48
2019-04-04T16:11:49.538Z,36.63
2019-04-04T16:14:13.564Z,40.95
2019-04-04T16:16:42.967Z,39.27
2019-04-04T16:19:13.476Z,37.63
2019-04-04T16:21:42.396Z,38.98
2019-04-04T16:24:13.366Z,38.00
2019-04-04T16:26:41.940Z,39.73
2019-04-04T16:29:12.460Z,39.73
2019-04-04T16:31:43.696Z,38.30
2019-04-04T16:34:14.002Z,39.90
2019-04-04T16:36:42.796Z,38.13
2019-04-04T16:39:15.284Z,39.58
2019-04-04T16:41:47.252Z,41.80
2019-04-04T16:44:19.159Z,42.78
2019-04-04T16:46:50.059Z,42.00
2019-04-04T16:49:20.599Z,43.78
2019-04-04T16:51:50.539Z,43.13
2019-04-04T16:54:21.188Z,45.92
2019-04-04T16:56:51.269Z,49.33
2019-04-04T16:59:22.559Z,49.93
2019-04-04T17:01:52.805Z,46.80
2019-04-04T17:04:23.984Z,47.45
2019-04-04T17:06:54.900Z,51.08
2019-04-04T17:09:23.723Z,47.20
2019-04-04T17:11:57.555Z,44.65
2019-04-04T17:14:29.884Z,45.67
2019-04-04T17:17:03.583Z,45.45
2019-04-04T17:19:34.362Z,46.77
2019-04-04T17:22:06.008Z,46.35
2019-04-04T17:24:34.897Z,43.83
2019-04-04T17:27:04.345Z,46.13
2019-04-04T17:29:34.510Z,45.85
2019-04-04T17:32:05.730Z,47.03
2019-04-04T17:34:35.540Z,43.65
2019-04-04T17:37:04.278Z,45.05
2019-04-04T17:39:35.569Z,46.75
2019-04-04T17:42:08.923Z,45.95
2019-04-04T17:44:39.039Z,48.28
2019-04-04T17:47:09.307Z,47.78
2019-04-04T17:49:40.306Z,47.05
2019-04-04T17:52:11.637Z,46.88
2019-04-04T17:54:42.797Z,45.48
2019-04-04T17:57:11.926Z,47.73
2019-04-04T17:59:42.916Z,45.83
2019-04-04T18:02:11.889Z,44.80
2019-04-04T18:04:48.212Z,46.68
2019-04-04T18:07:14.729Z,47.45
2019-04-04T18:09:45.682Z,47.10
2019-04-04T18:12:17.022Z,46.10
2019-04-04T18:14:47.612Z,47.43
2019-04-04T18:17:16.489Z,48.30
2019-04-04T18:19:45.356Z,47.70
2019-04-04T18:22:15.608Z,49.10
2019-04-04T18:24:46.811Z,50.78
2019-04-04T18:27:17.384Z,49.95
2019-04-04T18:30:25.868Z,52.23
2019-04-04T18:32:55.607Z,51.65
2019-04-04T18:35:28.016Z,55.05
2019-04-04T18:37:58.625Z,56.10
2019-04-04T18:40:33.677Z,58.48
2019-04-04T18:43:04.685Z,59.08
2019-04-04T18:45:34.746Z,53.45
2019-04-04T18:48:03.309Z,53.78
2019-04-04T18:50:32.419Z,54.58
2019-04-04T18:53:04.232Z,54.03
2019-04-04T18:55:33.384Z,55.90
2019-04-04T18:58:08.700Z,55.10
2019-04-04T19:00:37.911Z,55.70
2019-04-04T19:03:07.013Z,53.65
2019-04-04T19:05:36.279Z,56.35
2019-04-04T19:08:07.100Z,53.05
2019-04-04T19:10:36.257Z,54.90
2019-04-04T19:13:10.161Z,51.95
2019-04-04T19:15:39.077Z,54.33
2019-04-04T19:18:14.185Z,53.05
2019-04-04T19:20:45.434Z,53.35
2019-04-04T19:23:15.728Z,52.08
2019-04-04T19:25:46.280Z,53.33
2019-04-04T19:28:16.377Z,51.60
2019-04-04T19:30:46.615Z,53.13
2019-04-04T19:33:17.144Z,52.62
2019-04-04T19:35:49.004Z,52.73
2019-04-04T19:38:20.977Z,52.65
2019-04-04T19:40:53.520Z,53.35
2019-04-04T19:43:27.181Z,52.15
2019-04-04T19:48:24.702Z,50.28
2019-04-04T19:50:57.750Z,51.37
2019-04-04T19:53:27.006Z,51.23
2019-04-04T19:55:56.314Z,51.85
2019-04-04T19:58:29.183Z,53.92
2019-04-04T20:00:59.516Z,50.77
2019-04-04T20:03:32.921Z,49.73
2019-04-04T20:06:02.108Z,49.65
2019-04-04T20:08:34.105Z,50.85
2019-04-04T20:11:06.250Z,49.20
2019-04-04T20:13:35.170Z,50.45
2019-04-04T20:16:09.036Z,48.68
2019-04-04T20:18:38.021Z,46.95
2019-04-04T20:21:06.943Z,48.85
2019-04-04T20:23:37.587Z,46.85
2019-04-04T20:26:10.983Z,48.00
2019-04-04T20:28:42.509Z,46.58
2019-04-04T20:31:12.830Z,43.78
2019-04-04T20:33:43.474Z,44.38
2019-04-04T20:36:14.550Z,43.50
2019-04-04T20:38:43.961Z,41.13
2019-04-04T20:41:16.708Z,41.70
2019-04-04T20:43:46.006Z,41.15
2019-04-04T20:46:17.771Z,39.50
2019-04-04T20:48:48.346Z,39.20
2019-04-04T20:51:20.795Z,37.55
2019-04-04T20:53:51.017Z,38.28
2019-04-04T20:56:21.119Z,39.27
2019-04-04T20:58:51.049Z,37.50
2019-04-04T21:01:23.517Z,37.20
2019-04-04T21:03:52.697Z,37.88
2019-04-04T21:06:26.313Z,38.02
2019-04-04T21:11:22.791Z,37.98
2019-04-04T21:13:56.531Z,37.28
2019-04-04T21:16:28.443Z,35.25
2019-04-04T21:19:05.108Z,39.05
2019-04-04T21:21:37.377Z,40.00
2019-04-04T21:24:07.665Z,39.00
2019-04-04T21:26:36.440Z,40.25
2019-04-04T21:29:09.859Z,39.30
2019-04-04T21:31:40.806Z,39.67
2019-04-04T21:34:11.627Z,39.80
2019-04-04T21:36:42.300Z,43.25
2019-04-04T21:39:15.637Z,39.40
2019-04-04T21:41:44.584Z,39.48
2019-04-04T21:44:15.991Z,37.35
2019-04-04T21:46:46.749Z,37.93
2019-04-04T21:49:19.030Z,37.63
2019-04-04T21:51:49.554Z,37.10
2019-04-04T21:54:23.175Z,39.00
2019-04-04T21:59:22.070Z,37.42
2019-04-04T22:01:55.601Z,37.78
2019-04-04T22:04:26.505Z,38.05
2019-04-04T22:06:55.613Z,35.70
2019-04-04T22:09:24.590Z,36.58
2019-04-04T22:11:55.394Z,35.58
2019-04-04T22:14:24.140Z,36.55
2019-04-04T22:16:53.112Z,37.48
2019-04-04T22:19:22.055Z,38.67
2019-04-04T22:21:52.327Z,39.60
2019-04-04T22:24:24.319Z,38.42
2019-04-04T22:26:52.872Z,39.23
2019-04-04T22:29:24.688Z,40.95
2019-04-04T22:31:53.664Z,37.70
2019-04-04T22:34:23.256Z,43.55
2019-04-04T22:36:54.264Z,41.15
2019-04-04T22:39:26.276Z,42.85
2019-04-04T22:41:59.583Z,42.40
2019-04-04T22:44:35.063Z,41.50
2019-04-04T22:47:09.912Z,39.42
2019-04-04T22:49:39.871Z,41.53
2019-04-04T22:52:09.155Z,43.05
2019-04-04T22:54:39.670Z,38.17
2019-04-04T22:57:08.745Z,41.92
2019-04-04T22:59:38.845Z,40.58
2019-04-04T23:02:09.256Z,42.93
2019-04-04T23:04:40.960Z,39.25
2019-04-04T23:07:11.114Z,40.65
2019-04-04T23:09:41.439Z,39.25
2019-04-04T23:12:10.194Z,39.83
2019-04-04T23:14:48.119Z,38.42
2019-04-04T23:17:14.741Z,37.58
2019-04-04T23:19:46.994Z,42.67
2019-04-04T23:22:16.101Z,37.10
2019-04-04T23:24:52.987Z,35.92
2019-04-04T23:27:22.397Z,36.98
2019-04-04T23:29:51.325Z,36.53
2019-04-04T23:32:20.062Z,36.00
2019-04-04T23:34:48.971Z,36.28
2019-04-04T23:37:17.950Z,34.70
2019-04-04T23:39:51.347Z,36.53
2019-04-04T23:42:20.253Z,38.30
2019-04-04T23:45:01.155Z,36.13
2019-04-04T23:47:28.075Z,37.03
2019-04-04T23:49:58.494Z,34.45
2019-04-04T23:52:27.597Z,35.38
2019-04-04T23:54:58.309Z,36.23
2019-04-04T23:57:31.003Z,36.55
